Terminal Aerodrome Forecast
Issued by NWS

Home | Current Version | Previous Version | Text Only | Print | Product List | Glossary Off
Versions: 1 2 3 4 5 6 7 8 9 10 11 12

000
FTUS43 KMPX 261736
TAFRNH
TAF
KRNH 261736Z 2618/2718 09005KT P6SM BKN120
     FM270000 VRB02KT P6SM SKC
     FM271000 11002KT 6SM BR FEW007
     FM271300 14007KT P6SM SCT250=

USA.gov is the U.S. government's official web portal to all federal, state and local government web resources and services.